sensor_id;sensor_type;location;lat;lon;timestamp;pressure;altitude;pressure_sealevel;temperature;humidity
18201;BME280;9226;47.858;9.594;2023-04-09T00:01:53;95767.34;;;6.38;78.48
18201;BME280;9226;47.858;9.594;2023-04-09T00:04:19;95753.69;;;6.31;78.75
18201;BME280;9226;47.858;9.594;2023-04-09T00:06:44;95757.34;;;6.28;78.79
18201;BME280;9226;47.858;9.594;2023-04-09T00:09:09;95761.69;;;6.29;78.22
18201;BME280;9226;47.858;9.594;2023-04-09T00:11:35;95759.50;;;6.22;78.67
18201;BME280;9226;47.858;9.594;2023-04-09T00:14:00;95756.19;;;6.18;78.53
18201;BME280;9226;47.858;9.594;2023-04-09T00:16:26;95752.97;;;6.13;78.18
18201;BME280;9226;47.858;9.594;2023-04-09T00:18:51;95752.50;;;6.06;78.24
18201;BME280;9226;47.858;9.594;2023-04-09T00:21:16;95753.69;;;6.01;78.17
18201;BME280;9226;47.858;9.594;2023-04-09T00:23:42;95742.72;;;5.92;78.10
18201;BME280;9226;47.858;9.594;2023-04-09T00:26:08;95752.94;;;5.83;78.65
18201;BME280;9226;47.858;9.594;2023-04-09T00:28:34;95752.38;;;5.77;78.70
18201;BME280;9226;47.858;9.594;2023-04-09T00:31:00;95750.94;;;5.72;78.69
18201;BME280;9226;47.858;9.594;2023-04-09T00:33:26;95758.06;;;5.70;78.54
18201;BME280;9226;47.858;9.594;2023-04-09T00:35:51;95753.91;;;5.66;78.45
18201;BME280;9226;47.858;9.594;2023-04-09T00:38:17;95754.84;;;5.65;78.35
18201;BME280;9226;47.858;9.594;2023-04-09T00:40:42;95750.78;;;5.59;78.30
18201;BME280;9226;47.858;9.594;2023-04-09T00:43:08;95750.03;;;5.57;78.10
18201;BME280;9226;47.858;9.594;2023-04-09T00:45:34;95745.28;;;5.48;78.50
18201;BME280;9226;47.858;9.594;2023-04-09T00:47:59;95754.09;;;5.47;78.11
18201;BME280;9226;47.858;9.594;2023-04-09T00:50:25;95749.25;;;5.39;78.25
18201;BME280;9226;47.858;9.594;2023-04-09T00:52:50;95746.63;;;5.39;77.86
18201;BME280;9226;47.858;9.594;2023-04-09T00:55:17;95756.56;;;5.34;77.67
18201;BME280;9226;47.858;9.594;2023-04-09T00:57:42;95746.22;;;5.31;77.71
18201;BME280;9226;47.858;9.594;2023-04-09T01:00:08;95749.34;;;5.21;78.15
18201;BME280;9226;47.858;9.594;2023-04-09T01:02:33;95749.94;;;5.11;78.49
18201;BME280;9226;47.858;9.594;2023-04-09T01:04:59;95751.88;;;5.07;78.43
18201;BME280;9226;47.858;9.594;2023-04-09T01:10:16;95754.69;;;5.04;78.09
18201;BME280;9226;47.858;9.594;2023-04-09T01:15:56;95753.50;;;4.94;77.87
18201;BME280;9226;47.858;9.594;2023-04-09T01:18:35;95745.50;;;4.79;79.22
18201;BME280;9226;47.858;9.594;2023-04-09T01:21:12;95739.78;;;4.71;79.47
18201;BME280;9226;47.858;9.594;2023-04-09T01:23:58;95744.59;;;4.63;80.02
18201;BME280;9226;47.858;9.594;2023-04-09T01:29:15;95738.59;;;4.61;79.01
18201;BME280;9226;47.858;9.594;2023-04-09T01:31:43;95746.72;;;4.56;79.20
18201;BME280;9226;47.858;9.594;2023-04-09T01:34:09;95736.59;;;4.48;79.92
18201;BME280;9226;47.858;9.594;2023-04-09T01:36:36;95747.28;;;4.45;79.83
18201;BME280;9226;47.858;9.594;2023-04-09T01:39:04;95734.28;;;4.42;80.07
18201;BME280;9226;47.858;9.594;2023-04-09T01:41:31;95745.03;;;4.38;80.21
18201;BME280;9226;47.858;9.594;2023-04-09T01:43:59;95744.34;;;4.34;80.33
18201;BME280;9226;47.858;9.594;2023-04-09T01:46:26;95739.25;;;4.31;80.58
18201;BME280;9226;47.858;9.594;2023-04-09T01:48:52;95747.13;;;4.31;80.38
18201;BME280;9226;47.858;9.594;2023-04-09T01:51:19;95748.22;;;4.27;80.47
18201;BME280;9226;47.858;9.594;2023-04-09T01:53:44;95738.22;;;4.18;81.31
18201;BME280;9226;47.858;9.594;2023-04-09T01:56:10;95745.13;;;4.19;81.04
18201;BME280;9226;47.858;9.594;2023-04-09T01:58:35;95747.31;;;4.10;82.05
18201;BME280;9226;47.858;9.594;2023-04-09T02:01:09;95754.72;;;4.02;82.94
18201;BME280;9226;47.858;9.594;2023-04-09T02:03:50;95748.47;;;4.05;82.38
18201;BME280;9226;47.858;9.594;2023-04-09T02:06:30;95751.00;;;4.06;82.27
18201;BME280;9226;47.858;9.594;2023-04-09T02:08:59;95751.16;;;4.03;82.67
18201;BME280;9226;47.858;9.594;2023-04-09T02:11:28;95750.41;;;4.01;82.40
18201;BME280;9226;47.858;9.594;2023-04-09T02:13:54;95752.09;;;4.02;82.14
18201;BME280;9226;47.858;9.594;2023-04-09T02:16:21;95748.59;;;4.02;81.82
18201;BME280;9226;47.858;9.594;2023-04-09T02:18:54;95753.19;;;3.98;82.42
18201;BME280;9226;47.858;9.594;2023-04-09T02:21:22;95753.31;;;3.95;82.02
18201;BME280;9226;47.858;9.594;2023-04-09T02:23:47;95746.56;;;3.91;82.30
18201;BME280;9226;47.858;9.594;2023-04-09T02:26:12;95750.94;;;3.90;81.93
18201;BME280;9226;47.858;9.594;2023-04-09T02:28:38;95745.00;;;3.87;81.92
18201;BME280;9226;47.858;9.594;2023-04-09T02:31:03;95754.09;;;3.79;82.37
18201;BME280;9226;47.858;9.594;2023-04-09T02:33:29;95756.97;;;3.75;82.59
18201;BME280;9226;47.858;9.594;2023-04-09T02:35:54;95759.50;;;3.76;82.01
18201;BME280;9226;47.858;9.594;2023-04-09T02:38:19;95752.00;;;3.69;82.76
18201;BME280;9226;47.858;9.594;2023-04-09T02:40:45;95747.34;;;3.56;83.52
18201;BME280;9226;47.858;9.594;2023-04-09T02:43:10;95748.88;;;3.60;83.01
18201;BME280;9226;47.858;9.594;2023-04-09T02:45:36;95746.19;;;3.62;82.48
18201;BME280;9226;47.858;9.594;2023-04-09T02:48:01;95756.53;;;3.65;82.05
18201;BME280;9226;47.858;9.594;2023-04-09T02:50:26;95751.75;;;3.56;82.79
18201;BME280;9226;47.858;9.594;2023-04-09T02:52:52;95754.22;;;3.59;82.26
18201;BME280;9226;47.858;9.594;2023-04-09T02:55:18;95756.84;;;3.59;82.06
18201;BME280;9226;47.858;9.594;2023-04-09T02:57:44;95753.22;;;3.61;82.43
18201;BME280;9226;47.858;9.594;2023-04-09T03:00:10;95748.53;;;3.68;82.28
18201;BME280;9226;47.858;9.594;2023-04-09T03:02:35;95756.25;;;3.71;82.02
18201;BME280;9226;47.858;9.594;2023-04-09T03:05:01;95755.94;;;3.77;81.48
18201;BME280;9226;47.858;9.594;2023-04-09T03:07:26;95741.91;;;3.78;81.14
18201;BME280;9226;47.858;9.594;2023-04-09T03:09:52;95743.78;;;3.76;81.29
18201;BME280;9226;47.858;9.594;2023-04-09T03:12:17;95746.31;;;3.78;81.00
18201;BME280;9226;47.858;9.594;2023-04-09T03:14:43;95739.28;;;3.78;80.53
18201;BME280;9226;47.858;9.594;2023-04-09T03:17:08;95751.47;;;3.79;80.41
18201;BME280;9226;47.858;9.594;2023-04-09T03:19:33;95748.94;;;3.78;80.42
18201;BME280;9226;47.858;9.594;2023-04-09T03:21:59;95740.19;;;3.77;80.45
18201;BME280;9226;47.858;9.594;2023-04-09T03:24:24;95737.41;;;3.80;79.94
18201;BME280;9226;47.858;9.594;2023-04-09T03:26:49;95738.53;;;3.76;80.33
18201;BME280;9226;47.858;9.594;2023-04-09T03:29:15;95738.59;;;3.75;80.21
18201;BME280;9226;47.858;9.594;2023-04-09T03:31:40;95733.28;;;3.76;80.17
18201;BME280;9226;47.858;9.594;2023-04-09T03:34:06;95731.47;;;3.77;79.87
18201;BME280;9226;47.858;9.594;2023-04-09T03:36:31;95733.28;;;3.76;80.01
18201;BME280;9226;47.858;9.594;2023-04-09T03:38:57;95737.72;;;3.74;80.43
18201;BME280;9226;47.858;9.594;2023-04-09T03:41:22;95733.41;;;3.73;80.51
18201;BME280;9226;47.858;9.594;2023-04-09T03:43:48;95740.03;;;3.80;80.61
18201;BME280;9226;47.858;9.594;2023-04-09T03:46:18;95739.91;;;3.84;80.97
18201;BME280;9226;47.858;9.594;2023-04-09T03:48:44;95745.91;;;3.86;81.81
18201;BME280;9226;47.858;9.594;2023-04-09T03:51:13;95740.03;;;3.80;82.98
18201;BME280;9226;47.858;9.594;2023-04-09T03:53:40;95736.81;;;3.93;82.81
18201;BME280;9226;47.858;9.594;2023-04-09T03:56:06;95745.22;;;3.99;82.42
18201;BME280;9226;47.858;9.594;2023-04-09T03:58:32;95743.53;;;3.98;83.03
18201;BME280;9226;47.858;9.594;2023-04-09T04:00:57;95740.34;;;4.09;82.33
18201;BME280;9226;47.858;9.594;2023-04-09T04:03:23;95740.03;;;4.15;82.04
18201;BME280;9226;47.858;9.594;2023-04-09T04:05:48;95741.00;;;4.14;82.79
18201;BME280;9226;47.858;9.594;2023-04-09T04:08:13;95741.00;;;4.14;82.52
18201;BME280;9226;47.858;9.594;2023-04-09T04:10:39;95738.38;;;4.14;82.24
18201;BME280;9226;47.858;9.594;2023-04-09T04:13:08;95735.75;;;4.14;81.86
18201;BME280;9226;47.858;9.594;2023-04-09T04:15:38;95732.31;;;4.12;81.62
18201;BME280;9226;47.858;9.594;2023-04-09T04:18:05;95731.88;;;4.04;82.25
18201;BME280;9226;47.858;9.594;2023-04-09T04:20:32;95735.59;;;4.00;81.93
18201;BME280;9226;47.858;9.594;2023-04-09T04:22:57;95740.28;;;3.93;82.15
18201;BME280;9226;47.858;9.594;2023-04-09T04:25:23;95737.72;;;3.92;81.87
18201;BME280;9226;47.858;9.594;2023-04-09T04:27:48;95736.34;;;3.85;82.01
18201;BME280;9226;47.858;9.594;2023-04-09T04:30:13;95745.28;;;3.80;82.18
18201;BME280;9226;47.858;9.594;2023-04-09T04:32:39;95748.06;;;3.77;82.19
18201;BME280;9226;47.858;9.594;2023-04-09T04:35:05;95746.91;;;3.66;83.35
18201;BME280;9226;47.858;9.594;2023-04-09T04:37:30;95750.59;;;3.61;84.28
18201;BME280;9226;47.858;9.594;2023-04-09T04:39:55;95749.16;;;3.73;83.37
18201;BME280;9226;47.858;9.594;2023-04-09T04:42:21;95752.31;;;3.80;83.70
18201;BME280;9226;47.858;9.594;2023-04-09T04:44:47;95758.41;;;3.80;84.07
18201;BME280;9226;47.858;9.594;2023-04-09T04:47:12;95755.50;;;3.87;83.76
18201;BME280;9226;47.858;9.594;2023-04-09T04:49:38;95760.59;;;3.90;84.29
18201;BME280;9226;47.858;9.594;2023-04-09T04:52:04;95755.72;;;3.99;83.33
18201;BME280;9226;47.858;9.594;2023-04-09T04:54:30;95753.19;;;3.98;84.19
18201;BME280;9226;47.858;9.594;2023-04-09T04:56:55;95765.91;;;4.06;83.50
18201;BME280;9226;47.858;9.594;2023-04-09T04:59:21;95763.38;;;4.04;83.93
18201;BME280;9226;47.858;9.594;2023-04-09T05:01:46;95754.44;;;4.08;84.29
18201;BME280;9226;47.858;9.594;2023-04-09T05:04:11;95764.63;;;4.14;84.39
18201;BME280;9226;47.858;9.594;2023-04-09T05:06:37;95757.06;;;4.08;85.27
18201;BME280;9226;47.858;9.594;2023-04-09T05:09:02;95761.34;;;4.27;84.79
18201;BME280;9226;47.858;9.594;2023-04-09T05:11:27;95763.19;;;4.42;83.99
18201;BME280;9226;47.858;9.594;2023-04-09T05:13:53;95756.00;;;4.46;84.08
18201;BME280;9226;47.858;9.594;2023-04-09T05:16:19;95757.66;;;4.64;83.58
18201;BME280;9226;47.858;9.594;2023-04-09T05:18:45;95755.00;;;4.82;83.10
18201;BME280;9226;47.858;9.594;2023-04-09T05:21:11;95755.44;;;5.06;82.72
18201;BME280;9226;47.858;9.594;2023-04-09T05:23:36;95751.63;;;5.43;81.82
18201;BME280;9226;47.858;9.594;2023-04-09T05:26:01;95745.97;;;5.97;80.61
18201;BME280;9226;47.858;9.594;2023-04-09T05:28:27;95746.75;;;6.44;79.00
18201;BME280;9226;47.858;9.594;2023-04-09T05:30:52;95749.13;;;6.92;77.28
18201;BME280;9226;47.858;9.594;2023-04-09T05:33:18;95745.81;;;7.45;75.36
18201;BME280;9226;47.858;9.594;2023-04-09T05:35:43;95748.09;;;8.05;73.98
18201;BME280;9226;47.858;9.594;2023-04-09T05:38:08;95752.22;;;8.49;70.66
18201;BME280;9226;47.858;9.594;2023-04-09T05:40:34;95752.19;;;9.01;69.42
18201;BME280;9226;47.858;9.594;2023-04-09T05:43:00;95751.34;;;9.50;67.33
18201;BME280;9226;47.858;9.594;2023-04-09T05:45:25;95748.84;;;9.97;65.80
18201;BME280;9226;47.858;9.594;2023-04-09T05:47:53;95741.72;;;10.57;64.02
18201;BME280;9226;47.858;9.594;2023-04-09T05:50:18;95752.41;;;11.02;62.13
18201;BME280;9226;47.858;9.594;2023-04-09T05:52:44;95758.91;;;11.55;61.32
18201;BME280;9226;47.858;9.594;2023-04-09T05:55:09;95748.72;;;11.94;58.69
18201;BME280;9226;47.858;9.594;2023-04-09T05:57:34;95747.75;;;12.48;58.95
18201;BME280;9226;47.858;9.594;2023-04-09T06:00:00;95752.22;;;12.90;57.18
18201;BME280;9226;47.858;9.594;2023-04-09T06:02:26;95746.91;;;13.21;56.26
18201;BME280;9226;47.858;9.594;2023-04-09T06:04:51;95754.78;;;13.53;52.89
18201;BME280;9226;47.858;9.594;2023-04-09T06:07:16;95749.00;;;14.18;52.55
18201;BME280;9226;47.858;9.594;2023-04-09T06:09:42;95751.81;;;14.56;50.87
18201;BME280;9226;47.858;9.594;2023-04-09T06:12:11;95759.06;;;15.12;50.64
18201;BME280;9226;47.858;9.594;2023-04-09T06:14:37;95753.75;;;15.50;48.43
18201;BME280;9226;47.858;9.594;2023-04-09T06:17:02;95754.56;;;15.88;49.17
18201;BME280;9226;47.858;9.594;2023-04-09T06:19:28;95747.59;;;15.67;46.02
18201;BME280;9226;47.858;9.594;2023-04-09T06:21:53;95743.34;;;16.02;47.17
18201;BME280;9226;47.858;9.594;2023-04-09T06:24:18;95744.34;;;16.37;45.33
18201;BME280;9226;47.858;9.594;2023-04-09T06:26:44;95747.72;;;16.57;45.24
18201;BME280;9226;47.858;9.594;2023-04-09T06:29:10;95750.69;;;17.16;44.73
18201;BME280;9226;47.858;9.594;2023-04-09T06:31:35;95746.84;;;17.19;43.01
18201;BME280;9226;47.858;9.594;2023-04-09T06:34:01;95750.38;;;17.46;43.41
18201;BME280;9226;47.858;9.594;2023-04-09T06:36:26;95752.63;;;17.67;42.42
18201;BME280;9226;47.858;9.594;2023-04-09T06:38:52;95753.41;;;16.80;41.07
18201;BME280;9226;47.858;9.594;2023-04-09T06:41:22;95755.97;;;16.64;41.42
18201;BME280;9226;47.858;9.594;2023-04-09T06:43:48;95762.84;;;16.85;41.83
18201;BME280;9226;47.858;9.594;2023-04-09T06:46:14;95758.88;;;16.71;41.16
18201;BME280;9226;47.858;9.594;2023-04-09T06:48:41;95763.53;;;16.87;40.62
18201;BME280;9226;47.858;9.594;2023-04-09T06:51:09;95758.41;;;16.75;40.84
18201;BME280;9226;47.858;9.594;2023-04-09T06:53:35;95761.84;;;16.14;40.71
18201;BME280;9226;47.858;9.594;2023-04-09T06:56:00;95772.22;;;15.33;42.12
18201;BME280;9226;47.858;9.594;2023-04-09T06:58:26;95763.66;;;14.53;43.79
18201;BME280;9226;47.858;9.594;2023-04-09T07:00:52;95771.59;;;13.23;46.24
18201;BME280;9226;47.858;9.594;2023-04-09T07:03:17;95768.78;;;12.52;47.67
18201;BME280;9226;47.858;9.594;2023-04-09T07:05:42;95769.22;;;12.03;49.57
18201;BME280;9226;47.858;9.594;2023-04-09T07:08:08;95767.19;;;11.73;51.15
18201;BME280;9226;47.858;9.594;2023-04-09T07:10:33;95759.47;;;12.25;52.79
18201;BME280;9226;47.858;9.594;2023-04-09T07:12:59;95768.72;;;12.63;51.11
18201;BME280;9226;47.858;9.594;2023-04-09T07:15:24;95766.00;;;12.53;49.87
18201;BME280;9226;47.858;9.594;2023-04-09T07:17:50;95764.34;;;12.20;50.77
18201;BME280;9226;47.858;9.594;2023-04-09T07:20:15;95756.41;;;12.08;51.02
18201;BME280;9226;47.858;9.594;2023-04-09T07:22:40;95760.09;;;11.62;51.24
18201;BME280;9226;47.858;9.594;2023-04-09T07:25:06;95761.06;;;11.72;52.33
18201;BME280;9226;47.858;9.594;2023-04-09T07:27:32;95766.34;;;11.84;52.03
18201;BME280;9226;47.858;9.594;2023-04-09T07:29:58;95763.09;;;11.80;52.67
18201;BME280;9226;47.858;9.594;2023-04-09T07:32:24;95777.03;;;11.61;53.42
18201;BME280;9226;47.858;9.594;2023-04-09T07:34:51;95764.41;;;12.62;54.85
18201;BME280;9226;47.858;9.594;2023-04-09T07:37:17;95764.44;;;13.45;52.16
18201;BME280;9226;47.858;9.594;2023-04-09T07:39:43;95760.69;;;14.46;48.67
18201;BME280;9226;47.858;9.594;2023-04-09T07:42:08;95754.66;;;15.96;46.95
18201;BME280;9226;47.858;9.594;2023-04-09T07:44:34;95755.66;;;16.67;43.87
18201;BME280;9226;47.858;9.594;2023-04-09T07:47:01;95754.75;;;18.65;43.36
18201;BME280;9226;47.858;9.594;2023-04-09T07:49:29;95760.97;;;19.23;39.75
18201;BME280;9226;47.858;9.594;2023-04-09T07:51:56;95754.44;;;19.82;37.80
18201;BME280;9226;47.858;9.594;2023-04-09T07:54:21;95757.63;;;20.17;37.23
18201;BME280;9226;47.858;9.594;2023-04-09T07:56:47;95760.44;;;21.01;36.74
18201;BME280;9226;47.858;9.594;2023-04-09T07:59:13;95756.72;;;21.02;35.77
18201;BME280;9226;47.858;9.594;2023-04-09T08:01:40;95754.53;;;21.21;34.68
18201;BME280;9226;47.858;9.594;2023-04-09T08:04:05;95747.34;;;21.13;34.04
18201;BME280;9226;47.858;9.594;2023-04-09T08:06:31;95747.88;;;21.61;34.00
18201;BME280;9226;47.858;9.594;2023-04-09T08:08:56;95755.91;;;21.17;33.07
18201;BME280;9226;47.858;9.594;2023-04-09T08:11:22;95755.09;;;22.35;34.05
18201;BME280;9226;47.858;9.594;2023-04-09T08:13:51;95765.50;;;22.53;32.88
18201;BME280;9226;47.858;9.594;2023-04-09T08:16:16;95767.13;;;21.43;32.32
18201;BME280;9226;47.858;9.594;2023-04-09T08:18:42;95776.03;;;18.34;34.97
18201;BME280;9226;47.858;9.594;2023-04-09T08:21:07;95779.47;;;17.41;36.86
18201;BME280;9226;47.858;9.594;2023-04-09T08:23:33;95775.50;;;16.56;39.73
18201;BME280;9226;47.858;9.594;2023-04-09T08:25:58;95777.00;;;16.41;39.46
18201;BME280;9226;47.858;9.594;2023-04-09T08:28:23;95774.19;;;16.78;39.85
18201;BME280;9226;47.858;9.594;2023-04-09T08:30:49;95772.41;;;17.05;38.76
18201;BME280;9226;47.858;9.594;2023-04-09T08:33:15;95756.88;;;18.37;38.74
18201;BME280;9226;47.858;9.594;2023-04-09T08:35:41;95768.34;;;19.21;37.49
18201;BME280;9226;47.858;9.594;2023-04-09T08:38:06;95771.38;;;19.34;35.42
18201;BME280;9226;47.858;9.594;2023-04-09T08:40:35;95776.84;;;20.45;35.83
18201;BME280;9226;47.858;9.594;2023-04-09T08:43:03;95778.75;;;20.91;33.92
18201;BME280;9226;47.858;9.594;2023-04-09T08:45:29;95785.47;;;20.40;33.31
18201;BME280;9226;47.858;9.594;2023-04-09T08:47:55;95779.88;;;20.42;33.03
18201;BME280;9226;47.858;9.594;2023-04-09T08:50:26;95784.47;;;18.72;35.69
18201;BME280;9226;47.858;9.594;2023-04-09T08:52:53;95792.91;;;18.93;34.96
18201;BME280;9226;47.858;9.594;2023-04-09T08:55:21;95785.66;;;18.69;34.99
18201;BME280;9226;47.858;9.594;2023-04-09T08:57:46;95790.88;;;17.69;37.00
18201;BME280;9226;47.858;9.594;2023-04-09T09:00:12;95798.75;;;15.92;39.61
18201;BME280;9226;47.858;9.594;2023-04-09T09:02:37;95803.25;;;15.54;39.96
18201;BME280;9226;47.858;9.594;2023-04-09T09:05:04;95801.78;;;15.32;40.83
18201;BME280;9226;47.858;9.594;2023-04-09T09:07:30;95796.50;;;15.02;41.57
18201;BME280;9226;47.858;9.594;2023-04-09T09:10:01;95797.41;;;14.74;42.24
18201;BME280;9226;47.858;9.594;2023-04-09T09:12:35;95800.47;;;14.79;43.63
18201;BME280;9226;47.858;9.594;2023-04-09T09:15:01;95790.91;;;14.86;43.75
18201;BME280;9226;47.858;9.594;2023-04-09T09:17:26;95795.53;;;15.88;43.55
18201;BME280;9226;47.858;9.594;2023-04-09T09:19:52;95793.84;;;16.69;41.65
18201;BME280;9226;47.858;9.594;2023-04-09T09:22:17;95792.06;;;16.24;40.86
18201;BME280;9226;47.858;9.594;2023-04-09T09:24:50;95794.66;;;16.16;41.04
18201;BME280;9226;47.858;9.594;2023-04-09T09:27:36;95788.44;;;16.61;39.12
18201;BME280;9226;47.858;9.594;2023-04-09T09:30:04;95784.75;;;16.44;39.60
18201;BME280;9226;47.858;9.594;2023-04-09T09:32:31;95782.28;;;16.51;40.46
18201;BME280;9226;47.858;9.594;2023-04-09T09:35:04;95781.97;;;17.34;38.88
18201;BME280;9226;47.858;9.594;2023-04-09T09:37:30;95780.34;;;17.41;38.91
18201;BME280;9226;47.858;9.594;2023-04-09T09:39:57;95779.91;;;17.28;38.67
18201;BME280;9226;47.858;9.594;2023-04-09T09:42:22;95778.41;;;17.25;37.62
18201;BME280;9226;47.858;9.594;2023-04-09T09:44:49;95782.06;;;16.98;38.14
18201;BME280;9226;47.858;9.594;2023-04-09T09:47:17;95781.91;;;16.81;38.02
18201;BME280;9226;47.858;9.594;2023-04-09T09:49:43;95784.81;;;16.16;38.68
18201;BME280;9226;47.858;9.594;2023-04-09T09:52:10;95783.91;;;15.80;38.81
18201;BME280;9226;47.858;9.594;2023-04-09T09:54:47;95785.28;;;15.74;39.56
18201;BME280;9226;47.858;9.594;2023-04-09T09:57:15;95786.47;;;15.62;40.50
18201;BME280;9226;47.858;9.594;2023-04-09T09:59:50;95776.47;;;15.64;40.44
18201;BME280;9226;47.858;9.594;2023-04-09T10:02:19;95774.06;;;15.70;38.53
18201;BME280;9226;47.858;9.594;2023-04-09T10:04:47;95778.41;;;16.45;39.59
18201;BME280;9226;47.858;9.594;2023-04-09T10:07:13;95775.88;;;16.43;37.72
18201;BME280;9226;47.858;9.594;2023-04-09T10:09:41;95768.53;;;16.45;38.13
18201;BME280;9226;47.858;9.594;2023-04-09T10:12:08;95773.41;;;16.68;37.43
18201;BME280;9226;47.858;9.594;2023-04-09T10:14:34;95766.44;;;16.39;36.51
18201;BME280;9226;47.858;9.594;2023-04-09T10:17:01;95775.09;;;16.87;36.60
18201;BME280;9226;47.858;9.594;2023-04-09T10:19:34;95772.94;;;15.63;36.73
18201;BME280;9226;47.858;9.594;2023-04-09T10:22:05;95764.81;;;15.93;36.44
18201;BME280;9226;47.858;9.594;2023-04-09T10:24:34;95772.69;;;15.56;35.66
18201;BME280;9226;47.858;9.594;2023-04-09T10:29:42;95763.13;;;15.54;36.41
18201;BME280;9226;47.858;9.594;2023-04-09T10:32:08;95768.47;;;15.26;35.92
18201;BME280;9226;47.858;9.594;2023-04-09T10:34:37;95766.53;;;15.56;36.75
18201;BME280;9226;47.858;9.594;2023-04-09T10:37:02;95764.78;;;14.60;36.91
18201;BME280;9226;47.858;9.594;2023-04-09T10:39:31;95772.91;;;14.59;37.20
18201;BME280;9226;47.858;9.594;2023-04-09T10:41:59;95767.56;;;14.29;37.31
18201;BME280;9226;47.858;9.594;2023-04-09T10:44:27;95761.38;;;14.00;37.03
18201;BME280;9226;47.858;9.594;2023-04-09T10:46:55;95760.47;;;13.70;38.19
18201;BME280;9226;47.858;9.594;2023-04-09T10:49:25;95765.94;;;13.78;38.45
18201;BME280;9226;47.858;9.594;2023-04-09T10:59:33;95758.53;;;13.41;38.67
18201;BME280;9226;47.858;9.594;2023-04-09T11:07:56;95749.88;;;14.28;38.55
18201;BME280;9226;47.858;9.594;2023-04-09T11:10:22;95749.84;;;14.48;35.90
18201;BME280;9226;47.858;9.594;2023-04-09T11:12:48;95753.94;;;14.42;35.88
18201;BME280;9226;47.858;9.594;2023-04-09T11:15:18;95746.34;;;14.47;35.63
18201;BME280;9226;47.858;9.594;2023-04-09T11:17:45;95745.94;;;14.42;35.51
18201;BME280;9226;47.858;9.594;2023-04-09T11:20:12;95748.66;;;15.09;35.92
18201;BME280;9226;47.858;9.594;2023-04-09T11:22:37;95744.44;;;15.16;34.62
18201;BME280;9226;47.858;9.594;2023-04-09T11:25:03;95743.19;;;15.48;34.70
18201;BME280;9226;47.858;9.594;2023-04-09T11:27:29;95746.59;;;15.41;34.95
18201;BME280;9226;47.858;9.594;2023-04-09T11:29:55;95733.25;;;14.93;35.66
18201;BME280;9226;47.858;9.594;2023-04-09T11:32:20;95742.44;;;14.52;36.45
18201;BME280;9226;47.858;9.594;2023-04-09T11:34:46;95747.06;;;14.30;37.18
18201;BME280;9226;47.858;9.594;2023-04-09T11:37:14;95743.94;;;14.15;36.53
18201;BME280;9226;47.858;9.594;2023-04-09T11:39:43;95741.94;;;13.78;37.55
18201;BME280;9226;47.858;9.594;2023-04-09T11:42:17;95751.59;;;13.29;37.83
18201;BME280;9226;47.858;9.594;2023-04-09T11:44:44;95745.97;;;13.63;38.61
18201;BME280;9226;47.858;9.594;2023-04-09T11:47:11;95742.88;;;13.57;38.61
18201;BME280;9226;47.858;9.594;2023-04-09T11:49:37;95754.72;;;13.34;38.15
18201;BME280;9226;47.858;9.594;2023-04-09T11:52:03;95738.50;;;13.56;38.48
18201;BME280;9226;47.858;9.594;2023-04-09T11:54:32;95747.41;;;13.36;37.79
18201;BME280;9226;47.858;9.594;2023-04-09T11:56:59;95759.06;;;13.35;38.17
18201;BME280;9226;47.858;9.594;2023-04-09T11:59:25;95752.28;;;13.31;37.98
18201;BME280;9226;47.858;9.594;2023-04-09T12:01:51;95752.75;;;13.36;38.63
18201;BME280;9226;47.858;9.594;2023-04-09T12:04:20;95756.66;;;13.11;38.86
18201;BME280;9226;47.858;9.594;2023-04-09T12:06:45;95769.97;;;12.59;38.59
18201;BME280;9226;47.858;9.594;2023-04-09T12:09:11;95755.25;;;12.85;38.74
18201;BME280;9226;47.858;9.594;2023-04-09T12:11:41;95754.72;;;13.34;38.53
18201;BME280;9226;47.858;9.594;2023-04-09T12:14:12;95753.59;;;13.15;39.01
18201;BME280;9226;47.858;9.594;2023-04-09T12:16:37;95748.38;;;13.75;38.98
18201;BME280;9226;47.858;9.594;2023-04-09T12:19:06;95749.13;;;13.87;37.96
18201;BME280;9226;47.858;9.594;2023-04-09T12:21:51;95754.06;;;14.02;38.07
18201;BME280;9226;47.858;9.594;2023-04-09T12:24:23;95742.28;;;14.14;37.25
18201;BME280;9226;47.858;9.594;2023-04-09T12:26:49;95742.56;;;14.30;37.36
18201;BME280;9226;47.858;9.594;2023-04-09T12:29:17;95734.69;;;14.58;36.06
18201;BME280;9226;47.858;9.594;2023-04-09T12:31:43;95730.19;;;14.69;36.00
18201;BME280;9226;47.858;9.594;2023-04-09T12:34:09;95748.75;;;14.51;36.24
18201;BME280;9226;47.858;9.594;2023-04-09T12:36:35;95744.81;;;14.35;37.20
18201;BME280;9226;47.858;9.594;2023-04-09T12:39:01;95733.84;;;14.28;35.86
18201;BME280;9226;47.858;9.594;2023-04-09T12:41:26;95735.41;;;14.60;35.37
18201;BME280;9226;47.858;9.594;2023-04-09T12:43:52;95736.66;;;14.27;35.86
18201;BME280;9226;47.858;9.594;2023-04-09T12:46:18;95723.44;;;13.96;35.23
18201;BME280;9226;47.858;9.594;2023-04-09T12:48:43;95715.56;;;13.94;37.17
18201;BME280;9226;47.858;9.594;2023-04-09T12:51:09;95732.97;;;13.89;36.97
18201;BME280;9226;47.858;9.594;2023-04-09T12:53:36;95725.13;;;13.97;35.72
18201;BME280;9226;47.858;9.594;2023-04-09T12:56:01;95719.81;;;14.36;36.20
18201;BME280;9226;47.858;9.594;2023-04-09T12:58:27;95718.41;;;14.03;36.65
18201;BME280;9226;47.858;9.594;2023-04-09T13:00:53;95727.75;;;13.68;36.47
18201;BME280;9226;47.858;9.594;2023-04-09T13:03:19;95727.19;;;13.74;37.04
18201;BME280;9226;47.858;9.594;2023-04-09T13:05:45;95716.25;;;13.77;37.13
18201;BME280;9226;47.858;9.594;2023-04-09T13:08:11;95717.28;;;13.45;37.76
18201;BME280;9226;47.858;9.594;2023-04-09T13:10:37;95716.63;;;13.53;36.93
18201;BME280;9226;47.858;9.594;2023-04-09T13:13:03;95713.56;;;13.67;37.45
18201;BME280;9226;47.858;9.594;2023-04-09T13:15:29;95712.47;;;13.70;35.88
18201;BME280;9226;47.858;9.594;2023-04-09T13:17:55;95706.19;;;14.10;36.46
18201;BME280;9226;47.858;9.594;2023-04-09T13:20:21;95704.75;;;14.45;36.11
18201;BME280;9226;47.858;9.594;2023-04-09T13:22:46;95699.97;;;14.58;35.79
18201;BME280;9226;47.858;9.594;2023-04-09T13:25:16;95696.47;;;14.48;36.34
18201;BME280;9226;47.858;9.594;2023-04-09T13:27:42;95703.66;;;14.38;35.06
18201;BME280;9226;47.858;9.594;2023-04-09T13:30:07;95702.09;;;14.25;35.71
18201;BME280;9226;47.858;9.594;2023-04-09T13:32:33;95696.75;;;13.86;36.52
18201;BME280;9226;47.858;9.594;2023-04-09T13:34:58;95697.28;;;13.70;36.35
18201;BME280;9226;47.858;9.594;2023-04-09T13:37:24;95682.59;;;13.86;36.59